KLYO/LYO METAR and TAF weather

Enter ICAO airport designator
Station Type Date Time Source
KLYO METAR 2019/11/21 03:35 UTC NOAA

KLYO 210335Z AUTO 20020G29KT 10SM OVC012 17/15 A2972 RMK AO2 T01720148


Station Type Date Time Source
KLYO Decoded METAR 2019/11/21 03:35 UTC NOAA

Station name not available
Nov 20, 2019 - 10:35 PM EST / 2019.11.21 0335 UTC
Wind: from the SSW (200 degrees) at 23 MPH (20 KT) gusting to 33 MPH (29 KT):0
Visibility: 10 mile(s):0
Sky conditions: overcast
Temperature: 63.0 F (17.2 C)
Dew Point: 58.6 F (14.8 C)
Relative Humidity: 85%
Pressure (altimeter): 29.72 in. Hg (1006 hPa)
ob: KLYO 210335Z AUTO 20020G29KT 10SM OVC012 17/15 A2972 RMK AO2 T01720148
cycle: 3

Station Type Date Time Source
KLYO TAF UTC NOAA

Error!

Example: see airport list